Time;durP1;ratioP1;P1;durP2;ratioP2;P2;SDS_P1;SDS_P2;PMS_P1;PMS_P2;Temp;Humidity;BMP_temperature;BMP_pressure;BME280_temperature;BME280_humidity;BME280_pressure;Samples;Min_cycle;Max_cycle;Signal;HPM_P1;HPM_P2
2023/11/21 00:01:08;;;;;;;5.43;4.07;;;10.20;99.90;;;;;;6272413;22;20016;-67
2023/11/21 00:03:55;;;;;;;6.43;4.15;;;10.10;99.90;;;;;;6273232;22;20113;-67
2023/11/21 00:06:41;;;;;;;7.22;4.78;;;10.00;99.90;;;;;;6272121;22;20050;-67
2023/11/21 00:09:27;;;;;;;7.38;5.20;;;9.90;99.90;;;;;;6257490;22;20043;-67
2023/11/21 00:12:13;;;;;;;7.45;5.82;;;9.80;99.90;;;;;;6273631;22;20437;-67
2023/11/21 00:15:00;;;;;;;9.25;6.60;;;9.60;99.90;;;;;;6270197;22;20437;-68
2023/11/21 00:17:46;;;;;;;9.00;6.00;;;9.60;99.90;;;;;;6270893;22;20031;-69
2023/11/21 00:20:32;;;;;;;9.20;6.20;;;9.50;99.90;;;;;;6269767;22;20019;-68
2023/11/21 00:23:18;;;;;;;8.48;5.78;;;9.50;99.90;;;;;;6269937;22;20027;-67
2023/11/21 00:26:04;;;;;;;10.15;6.80;;;9.40;99.90;;;;;;6248219;22;20012;-67
2023/11/21 00:28:50;;;;;;;11.90;7.80;;;9.30;99.90;;;;;;6271355;22;20019;-67
2023/11/21 00:31:36;;;;;;;12.55;8.82;;;9.20;99.90;;;;;;6271121;22;20008;-67
2023/11/21 00:34:22;;;;;;;15.18;9.60;;;9.10;99.90;;;;;;6270808;22;20008;-67
2023/11/21 00:37:08;;;;;;;15.70;10.35;;;9.10;99.90;;;;;;6271921;22;20428;-67
2023/11/21 00:39:54;;;;;;;16.05;10.43;;;9.00;99.90;;;;;;6271516;22;20085;-67
2023/11/21 00:42:40;;;;;;;17.10;11.15;;;9.00;99.90;;;;;;6248348;22;20020;-67
2023/11/21 00:45:26;;;;;;;19.00;12.15;;;9.00;99.90;;;;;;6270635;22;20031;-69
2023/11/21 00:48:13;;;;;;;21.13;12.60;;;8.90;99.90;;;;;;6269951;22;20039;-69
2023/11/21 00:50:59;;;;;;;23.88;12.07;;;8.90;99.90;;;;;;6248129;22;20069;-69
2023/11/21 00:53:46;;;;;;;19.83;13.98;;;8.80;99.90;;;;;;6270251;22;20015;-70
2023/11/21 00:56:32;;;;;;;21.85;14.10;;;8.80;99.90;;;;;;6272561;22;20000;-69
2023/11/21 00:59:18;;;;;;;21.25;12.80;;;8.80;99.90;;;;;;6271880;22;20016;-69
2023/11/21 01:02:04;;;;;;;21.33;13.02;;;8.70;99.90;;;;;;6272297;22;20449;-70
2023/11/21 01:04:50;;;;;;;27.38;13.35;;;8.70;99.90;;;;;;6270363;22;20023;-69
2023/11/21 01:07:36;;;;;;;22.90;14.20;;;8.70;99.90;;;;;;6270954;22;20004;-69
2023/11/21 01:10:22;;;;;;;25.35;14.48;;;8.60;99.90;;;;;;6269833;22;20020;-69
2023/11/21 01:13:08;;;;;;;21.90;14.18;;;8.60;99.90;;;;;;6270698;22;20349;-70
2023/11/21 01:15:55;;;;;;;24.70;13.23;;;8.60;99.90;;;;;;6270738;22;20008;-71
2023/11/21 01:18:40;;;;;;;24.40;14.80;;;8.60;99.90;;;;;;6268835;22;20171;-70
2023/11/21 01:21:27;;;;;;;29.33;15.48;;;8.50;99.90;;;;;;6269833;22;20018;-71
2023/11/21 01:24:13;;;;;;;26.80;16.23;;;8.50;99.90;;;;;;6269305;22;20051;-70
2023/11/21 01:26:59;;;;;;;24.33;14.40;;;8.50;99.90;;;;;;6270110;22;20014;-71
2023/11/21 01:29:45;;;;;;;29.50;16.02;;;8.50;99.90;;;;;;6271257;22;20019;-72
2023/11/21 01:32:31;;;;;;;28.45;16.58;;;8.40;99.90;;;;;;6270128;22;20468;-71
2023/11/21 01:35:17;;;;;;;30.17;16.13;;;8.40;99.90;;;;;;6271495;22;20007;-70
2023/11/21 01:38:03;;;;;;;33.35;18.67;;;8.40;99.90;;;;;;6270425;22;20015;-71
2023/11/21 01:40:49;;;;;;;35.80;19.02;;;8.40;99.90;;;;;;6268781;22;20008;-71
2023/11/21 01:43:35;;;;;;;44.05;22.00;;;8.40;99.90;;;;;;6270989;22;20024;-71
2023/11/21 01:46:24;;;;;;;40.45;19.77;;;8.30;99.90;;;;;;6270979;22;20047;-70
2023/11/21 01:49:13;;;;;;;45.78;21.65;;;8.20;99.90;;;;;;6270323;22;20070;-70
2023/11/21 01:51:59;;;;;;;38.55;19.85;;;8.20;99.90;;;;;;6269746;22;20077;-70
2023/11/21 01:54:45;;;;;;;40.88;19.42;;;8.10;99.90;;;;;;6268502;22;20459;-70
2023/11/21 01:57:31;;;;;;;32.95;16.05;;;8.10;99.90;;;;;;6270755;22;20345;-71
2023/11/21 02:00:19;;;;;;;34.50;16.73;;;8.10;99.90;;;;;;6269685;22;20015;-70
2023/11/21 02:03:06;;;;;;;37.30;17.27;;;8.10;99.90;;;;;;6268957;22;20028;-71
2023/11/21 02:05:53;;;;;;;31.55;15.50;;;8.00;99.90;;;;;;6269863;22;20034;-70
2023/11/21 02:08:42;;;;;;;29.90;16.52;;;8.00;99.90;;;;;;6268547;22;20026;-70
2023/11/21 02:11:28;;;;;;;25.67;13.60;;;7.90;99.90;;;;;;6267499;22;20011;-71
2023/11/21 02:14:14;;;;;;;24.08;12.30;;;7.80;99.90;;;;;;6269212;22;20019;-71
2023/11/21 02:17:00;;;;;;;23.40;10.98;;;7.80;99.90;;;;;;6270557;22;20008;-70
2023/11/21 02:19:50;;;;;;;24.35;11.73;;;7.80;99.90;;;;;;6270173;22;20012;-71
2023/11/21 02:22:40;;;;;;;25.92;13.27;;;7.70;99.90;;;;;;6269652;22;20102;-70
2023/11/21 02:25:31;;;;;;;26.75;13.27;;;7.70;99.90;;;;;;6269149;22;20057;-73
2023/11/21 02:28:25;;;;;;;27.83;13.68;;;7.70;99.90;;;;;;6245623;22;20061;-71
2023/11/21 02:31:12;;;;;;;22.25;11.45;;;7.70;99.90;;;;;;6269552;22;20426;-72
2023/11/21 02:33:58;;;;;;;23.63;12.50;;;7.60;99.90;;;;;;6247860;22;20042;-72
2023/11/21 02:36:44;;;;;;;23.48;11.25;;;7.60;99.90;;;;;;6269742;22;20039;-71
2023/11/21 02:39:31;;;;;;;23.58;11.65;;;7.60;99.90;;;;;;6265931;22;20039;-71
2023/11/21 02:42:17;;;;;;;22.80;11.45;;;7.60;99.90;;;;;;6269331;22;20003;-70
2023/11/21 02:45:05;;;;;;;19.48;11.40;;;7.60;99.90;;;;;;6269506;22;20046;-70
2023/11/21 02:47:53;;;;;;;21.83;12.07;;;7.60;99.90;;;;;;6268695;22;20011;-69
2023/11/21 02:50:38;;;;;;;21.90;11.43;;;7.60;99.90;;;;;;6269112;22;20028;-70
2023/11/21 02:53:24;;;;;;;22.90;11.07;;;7.60;99.90;;;;;;6269609;22;20043;-69
2023/11/21 02:56:10;;;;;;;19.42;9.07;;;7.60;99.90;;;;;;6271275;22;20007;-70
2023/11/21 02:58:57;;;;;;;18.33;9.63;;;7.60;99.90;;;;;;6247895;22;20004;-70
2023/11/21 03:01:43;;;;;;;17.88;10.63;;;7.70;99.90;;;;;;6247568;22;20012;-71
2023/11/21 03:04:29;;;;;;;16.70;9.50;;;7.70;99.90;;;;;;6270711;22;20417;-70
2023/11/21 03:07:15;;;;;;;13.63;8.50;;;7.60;99.90;;;;;;6270814;22;20333;-70
2023/11/21 03:10:01;;;;;;;14.63;8.63;;;7.60;99.90;;;;;;6268689;22;20016;-70
2023/11/21 03:12:47;;;;;;;14.73;9.15;;;7.60;99.90;;;;;;6270711;22;20031;-69
2023/11/21 03:15:34;;;;;;;13.98;8.70;;;7.60;99.90;;;;;;6271225;22;20008;-70
2023/11/21 03:18:21;;;;;;;15.68;9.85;;;7.60;99.90;;;;;;6269072;22;20476;-71
2023/11/21 03:21:11;;;;;;;16.48;10.00;;;7.60;99.90;;;;;;6268167;22;20086;-72
2023/11/21 03:23:57;;;;;;;12.60;8.73;;;7.50;99.90;;;;;;6276417;22;20097;-72
2023/11/21 03:26:44;;;;;;;11.45;8.15;;;7.60;99.90;;;;;;6275032;22;20357;-71
2023/11/21 03:29:30;;;;;;;15.20;9.18;;;7.60;99.90;;;;;;6269539;22;20124;-72
2023/11/21 03:32:16;;;;;;;10.75;7.53;;;7.60;99.90;;;;;;6270648;22;20685;-71
2023/11/21 03:35:03;;;;;;;11.98;8.02;;;7.60;99.90;;;;;;6268634;22;20355;-71
2023/11/21 03:37:49;;;;;;;10.35;7.47;;;7.60;99.90;;;;;;6268917;22;20078;-72
2023/11/21 03:40:35;;;;;;;13.90;7.90;;;7.60;99.90;;;;;;6269261;22;20463;-72
2023/11/21 03:43:21;;;;;;;10.60;8.18;;;7.60;99.90;;;;;;6270025;22;20027;-72
2023/11/21 03:46:07;;;;;;;11.75;7.97;;;7.60;99.90;;;;;;6270294;22;20538;-72
2023/11/21 03:48:54;;;;;;;11.55;7.93;;;7.60;99.90;;;;;;6269969;22;20015;-73
2023/11/21 03:51:40;;;;;;;11.43;7.63;;;7.60;99.90;;;;;;6250796;22;20018;-72
2023/11/21 03:54:26;;;;;;;12.40;7.57;;;7.60;99.90;;;;;;6272202;22;20011;-72
2023/11/21 03:57:12;;;;;;;10.02;7.22;;;7.50;99.90;;;;;;6271372;22;20015;-72
2023/11/21 03:59:58;;;;;;;12.02;8.05;;;7.50;99.90;;;;;;6272796;22;20035;-71
2023/11/21 04:02:45;;;;;;;12.38;8.20;;;7.40;99.90;;;;;;6271540;22;20022;-72
2023/11/21 04:05:31;;;;;;;10.73;7.50;;;7.40;99.90;;;;;;6271062;22;20008;-72
2023/11/21 04:08:17;;;;;;;12.63;8.05;;;7.40;99.90;;;;;;6271768;22;20460;-72
2023/11/21 04:11:04;;;;;;;10.63;6.57;;;7.40;99.90;;;;;;6272316;22;20438;-74
2023/11/21 04:13:50;;;;;;;11.13;6.97;;;7.40;99.90;;;;;;6270617;22;20007;-72
2023/11/21 04:16:35;;;;;;;11.02;7.38;;;7.40;99.90;;;;;;6270954;22;20012;-72
2023/11/21 04:19:21;;;;;;;9.77;6.88;;;7.40;99.90;;;;;;6269610;22;20023;-72
2023/11/21 04:22:07;;;;;;;9.60;6.85;;;7.40;99.90;;;;;;6270227;22;20065;-71
2023/11/21 04:24:55;;;;;;;10.50;6.68;;;7.30;99.90;;;;;;6270750;22;20091;-71
2023/11/21 04:27:43;;;;;;;10.45;6.55;;;7.30;99.90;;;;;;6270177;22;20018;-71
2023/11/21 04:30:29;;;;;;;8.68;6.10;;;7.20;99.90;;;;;;6270779;22;20007;-71
2023/11/21 04:33:15;;;;;;;10.43;5.75;;;7.20;99.90;;;;;;6269649;22;20019;-71
2023/11/21 04:36:02;;;;;;;8.13;5.63;;;7.10;99.90;;;;;;6272757;22;20007;-70
2023/11/21 04:38:48;;;;;;;8.25;4.93;;;7.10;99.90;;;;;;6270804;22;20113;-70
2023/11/21 04:41:33;;;;;;;8.95;5.50;;;7.00;99.90;;;;;;6269880;22;20361;-71
2023/11/21 04:44:19;;;;;;;8.05;4.97;;;7.00;99.90;;;;;;6269821;22;20023;-69
2023/11/21 04:47:05;;;;;;;8.02;5.88;;;7.00;99.90;;;;;;6271711;22;20011;-70
2023/11/21 04:49:51;;;;;;;9.40;5.97;;;7.00;99.90;;;;;;6270729;22;20023;-70
2023/11/21 04:52:37;;;;;;;9.50;6.95;;;7.00;99.90;;;;;;6271914;22;20003;-70
2023/11/21 04:55:23;;;;;;;10.35;6.47;;;7.00;99.90;;;;;;6269107;22;20023;-69
2023/11/21 04:58:11;;;;;;;8.93;6.10;;;7.10;99.90;;;;;;6271334;22;20091;-70
2023/11/21 05:00:57;;;;;;;9.25;6.50;;;7.10;99.90;;;;;;6270354;22;20016;-69
2023/11/21 05:03:43;;;;;;;10.02;5.95;;;7.10;99.90;;;;;;6270994;22;20089;-69
2023/11/21 05:06:29;;;;;;;8.88;6.18;;;7.10;99.90;;;;;;6249663;22;20003;-70
2023/11/21 05:09:15;;;;;;;8.73;5.78;;;7.10;99.90;;;;;;6271763;22;20011;-70
2023/11/21 05:12:02;;;;;;;7.75;4.72;;;7.10;99.90;;;;;;6270164;22;20004;-69
2023/11/21 05:14:48;;;;;;;9.93;5.85;;;7.10;99.90;;;;;;6268091;22;20007;-69
2023/11/21 05:17:34;;;;;;;8.63;5.45;;;7.10;99.90;;;;;;6270049;22;20015;-69
2023/11/21 05:20:21;;;;;;;9.52;5.60;;;7.10;99.90;;;;;;6269925;22;20432;-69
2023/11/21 05:23:07;;;;;;;10.63;5.78;;;7.10;99.90;;;;;;6269878;22;20062;-70
2023/11/21 05:25:53;;;;;;;8.52;5.07;;;7.10;99.90;;;;;;6269292;22;20014;-70
2023/11/21 05:28:40;;;;;;;9.27;5.53;;;7.00;99.90;;;;;;6271133;22;20124;-70
2023/11/21 05:31:26;;;;;;;7.55;5.03;;;7.00;99.90;;;;;;6270540;22;20016;-69
2023/11/21 05:34:12;;;;;;;10.63;6.63;;;7.10;99.90;;;;;;6270026;22;20073;-70
2023/11/21 05:36:58;;;;;;;8.60;5.60;;;7.10;99.90;;;;;;6270347;22;20011;-70
2023/11/21 05:39:44;;;;;;;11.95;6.22;;;7.10;99.90;;;;;;6269846;22;20012;-69
2023/11/21 05:42:30;;;;;;;8.63;5.53;;;7.10;99.90;;;;;;6270878;22;20010;-69
2023/11/21 05:45:16;;;;;;;8.45;5.53;;;7.10;99.90;;;;;;6249529;22;20464;-69
2023/11/21 05:48:03;;;;;;;8.10;5.75;;;7.10;99.90;;;;;;6270325;22;20004;-69
2023/11/21 05:50:49;;;;;;;10.02;5.95;;;7.10;99.90;;;;;;6269375;22;20086;-70
2023/11/21 05:53:35;;;;;;;9.95;5.40;;;7.10;99.90;;;;;;6270717;22;20030;-73
2023/11/21 05:56:21;;;;;;;10.40;6.22;;;7.10;99.90;;;;;;6270451;22;20016;-72
2023/11/21 05:59:07;;;;;;;8.60;5.43;;;7.10;99.90;;;;;;6269230;22;20016;-70
2023/11/21 06:01:53;;;;;;;8.85;5.82;;;7.10;99.90;;;;;;6268637;22;20017;-69
2023/11/21 06:04:39;;;;;;;7.80;5.30;;;7.10;99.90;;;;;;6268462;22;20432;-71
2023/11/21 06:07:25;;;;;;;9.18;5.97;;;7.00;99.90;;;;;;6270459;22;20457;-71
2023/11/21 06:10:14;;;;;;;8.93;6.50;;;7.00;99.90;;;;;;6269899;22;20035;-70
2023/11/21 06:13:00;;;;;;;9.63;6.65;;;7.00;99.90;;;;;;6270490;22;20087;-71
2023/11/21 06:15:45;;;;;;;12.32;6.95;;;7.00;99.90;;;;;;6270224;22;20015;-69
2023/11/21 06:18:31;;;;;;;11.23;7.53;;;7.00;99.90;;;;;;6269793;22;20062;-70
2023/11/21 06:21:18;;;;;;;10.43;6.55;;;7.00;99.90;;;;;;6267091;22;20085;-70
2023/11/21 06:24:04;;;;;;;8.35;6.07;;;7.00;99.90;;;;;;6269201;22;20023;-70
2023/11/21 06:26:50;;;;;;;10.95;6.68;;;7.00;99.90;;;;;;6269530;22;20008;-72
2023/11/21 06:29:37;;;;;;;8.45;5.00;;;6.90;99.90;;;;;;6269159;22;20015;-70
2023/11/21 06:32:22;;;;;;;9.43;6.18;;;6.90;99.90;;;;;;6266555;22;20006;-71
2023/11/21 06:35:09;;;;;;;7.50;4.68;;;6.90;99.90;;;;;;6276400;22;20016;-71
2023/11/21 06:37:55;;;;;;;7.90;4.88;;;6.90;99.90;;;;;;6274418;22;20018;-71
2023/11/21 06:40:41;;;;;;;8.45;5.35;;;6.90;99.90;;;;;;6269420;22;20333;-71
2023/11/21 06:43:27;;;;;;;9.15;4.95;;;6.90;99.90;;;;;;6267579;22;20024;-72
2023/11/21 06:46:14;;;;;;;6.78;4.95;;;6.90;99.90;;;;;;6270071;22;20027;-72
2023/11/21 06:49:00;;;;;;;6.88;4.60;;;6.90;99.90;;;;;;6270004;22;20026;-72
2023/11/21 06:51:46;;;;;;;6.22;4.43;;;7.00;99.90;;;;;;6267561;22;20024;-72
2023/11/21 06:54:32;;;;;;;6.75;4.38;;;6.90;99.90;;;;;;6247198;22;20012;-72
2023/11/21 06:57:23;;;;;;;8.35;5.00;;;6.90;99.90;;;;;;6268406;22;20768;-70
2023/11/21 07:00:09;;;;;;;8.30;5.50;;;6.90;99.90;;;;;;6268311;22;20004;-75
2023/11/21 07:02:55;;;;;;;6.72;4.78;;;6.90;99.90;;;;;;6268995;22;20046;-74
2023/11/21 07:05:41;;;;;;;7.00;4.35;;;6.90;99.90;;;;;;6269761;22;20349;-73
2023/11/21 07:08:27;;;;;;;7.68;5.22;;;6.90;99.90;;;;;;6248236;22;20023;-73
2023/11/21 07:11:13;;;;;;;7.38;5.03;;;6.90;99.90;;;;;;6267363;22;20082;-72
2023/11/21 07:13:59;;;;;;;7.53;4.85;;;6.90;99.90;;;;;;6270469;22;20069;-73
2023/11/21 07:16:46;;;;;;;7.45;4.40;;;6.90;99.90;;;;;;6271085;22;20259;-73
2023/11/21 07:19:32;;;;;;;6.53;4.25;;;6.90;99.90;;;;;;6268845;22;20019;-73
2023/11/21 07:22:21;;;;;;;7.22;4.95;;;6.90;99.90;;;;;;6269434;22;20111;-72
2023/11/21 07:25:09;;;;;;;8.13;4.47;;;6.90;99.90;;;;;;6269841;22;20023;-73
2023/11/21 07:27:56;;;;;;;6.88;4.57;;;6.90;99.90;;;;;;6270418;22;20031;-74
2023/11/21 07:30:42;;;;;;;5.68;4.05;;;6.80;99.90;;;;;;6271395;22;20389;-73
2023/11/21 07:33:28;;;;;;;8.25;4.32;;;6.80;99.90;;;;;;6269353;22;20010;-74
2023/11/21 07:36:15;;;;;;;7.35;4.25;;;6.70;99.90;;;;;;6271685;22;20011;-74
2023/11/21 07:39:02;;;;;;;6.97;4.93;;;6.70;99.90;;;;;;6271465;22;20442;-73
2023/11/21 07:41:49;;;;;;;7.43;5.03;;;6.70;99.90;;;;;;6266699;22;20030;-75
2023/11/21 07:44:35;;;;;;;7.28;4.65;;;6.70;99.90;;;;;;6269547;22;20020;-74
2023/11/21 07:47:21;;;;;;;8.30;5.00;;;6.70;99.90;;;;;;6270077;22;20083;-73
2023/11/21 07:50:08;;;;;;;6.25;4.00;;;6.80;99.90;;;;;;6269108;22;20058;-72
2023/11/21 07:52:54;;;;;;;7.57;4.28;;;6.80;99.90;;;;;;6270491;22;20433;-73
2023/11/21 07:55:40;;;;;;;7.50;4.72;;;6.80;99.90;;;;;;6271649;22;20456;-72
2023/11/21 07:58:26;;;;;;;6.63;3.88;;;6.80;99.90;;;;;;6269826;22;20011;-71
2023/11/21 08:01:12;;;;;;;5.53;3.53;;;6.80;99.90;;;;;;6269666;22;20065;-72
2023/11/21 08:04:03;;;;;;;6.80;4.00;;;6.80;99.90;;;;;;6269463;22;20023;-73
2023/11/21 08:06:49;;;;;;;6.47;4.22;;;6.90;99.90;;;;;;6269348;22;20012;-73
2023/11/21 08:09:35;;;;;;;5.38;3.72;;;6.80;99.90;;;;;;6268045;22;20434;-73
2023/11/21 08:12:21;;;;;;;9.82;4.78;;;6.80;99.90;;;;;;6271048;22;20011;-72
2023/11/21 08:15:07;;;;;;;7.53;4.50;;;6.80;99.90;;;;;;6270588;22;20055;-73
2023/11/21 08:17:53;;;;;;;6.75;4.65;;;6.80;99.90;;;;;;6269397;22;20480;-73
2023/11/21 08:20:39;;;;;;;9.82;5.82;;;6.80;99.90;;;;;;6269848;22;20012;-73
2023/11/21 08:23:26;;;;;;;9.18;6.07;;;6.80;99.90;;;;;;6270927;22;20034;-73
2023/11/21 08:26:13;;;;;;;10.00;5.30;;;6.80;99.90;;;;;;6270083;22;20416;-69
2023/11/21 08:28:59;;;;;;;11.57;5.18;;;6.80;99.90;;;;;;6269894;22;20015;-69
2023/11/21 08:31:48;;;;;;;9.70;5.50;;;6.70;99.90;;;;;;6269141;22;20008;-68
2023/11/21 08:34:34;;;;;;;10.95;5.60;;;6.70;99.90;;;;;;6270291;22;20012;-69
2023/11/21 08:37:20;;;;;;;10.73;5.30;;;6.80;99.90;;;;;;6270132;22;20004;-68
2023/11/21 08:40:12;;;;;;;13.73;6.80;;;6.80;99.90;;;;;;6267320;22;20099;-68
2023/11/21 08:43:00;;;;;;;12.55;6.20;;;6.60;99.90;;;;;;6270176;22;20380;-67
2023/11/21 08:45:46;;;;;;;11.95;6.97;;;6.70;99.90;;;;;;6269579;22;20019;-67
2023/11/21 08:48:32;;;;;;;11.93;5.88;;;6.70;99.90;;;;;;6270127;22;20008;-68
2023/11/21 08:51:18;;;;;;;11.68;6.82;;;6.60;99.90;;;;;;6268669;22;20356;-68
2023/11/21 08:54:07;;;;;;;12.30;6.63;;;6.60;99.90;;;;;;6270080;22;20012;-68
2023/11/21 08:56:54;;;;;;;16.23;7.55;;;6.60;99.90;;;;;;6269886;22;20010;-68
2023/11/21 08:59:40;;;;;;;13.07;6.40;;;6.50;99.90;;;;;;6269731;22;20007;-65
2023/11/21 09:02:26;;;;;;;14.85;7.30;;;6.60;99.90;;;;;;6270854;22;20004;-67
2023/11/21 09:05:13;;;;;;;16.33;7.13;;;6.60;99.90;;;;;;6270109;22;20034;-67
2023/11/21 09:07:59;;;;;;;12.95;6.85;;;6.70;99.90;;;;;;6270530;22;20003;-68
2023/11/21 09:10:47;;;;;;;19.25;7.43;;;6.60;99.90;;;;;;6271506;22;20026;-68
2023/11/21 09:13:33;;;;;;;14.20;7.35;;;6.60;99.90;;;;;;6269946;22;20004;-68
2023/11/21 09:16:19;;;;;;;11.98;6.75;;;6.50;99.90;;;;;;6269840;22;20018;-68
2023/11/21 09:19:05;;;;;;;12.27;6.05;;;6.50;99.90;;;;;;6269258;22;20008;-68
2023/11/21 09:21:51;;;;;;;15.15;7.63;;;6.50;99.90;;;;;;6268144;22;20069;-69
2023/11/21 09:24:37;;;;;;;13.48;6.88;;;6.50;99.90;;;;;;6268372;22;20369;-71
2023/11/21 09:27:23;;;;;;;15.82;6.65;;;6.40;99.90;;;;;;6269482;22;20015;-69
2023/11/21 09:30:10;;;;;;;16.52;7.53;;;6.50;99.90;;;;;;6269545;22;20449;-68
2023/11/21 09:32:56;;;;;;;12.57;5.85;;;6.50;99.90;;;;;;6269836;22;20007;-68
2023/11/21 09:35:43;;;;;;;13.40;6.45;;;6.50;99.90;;;;;;6272056;22;20019;-68
2023/11/21 09:38:29;;;;;;;12.88;6.72;;;6.50;99.90;;;;;;6272778;22;20007;-68
2023/11/21 09:41:39;;;;;;;11.60;5.30;;;6.40;99.90;;;;;;6268117;22;20532;-69
2023/11/21 09:44:45;;;;;;;11.82;5.93;;;6.40;99.90;;;;;;6270603;22;20433;-67
2023/11/21 09:47:33;;;;;;;11.30;5.32;;;6.40;99.90;;;;;;6268141;22;20022;-69
2023/11/21 09:50:21;;;;;;;8.07;4.72;;;6.50;99.90;;;;;;6269387;22;20026;-70
2023/11/21 09:53:16;;;;;;;9.75;4.93;;;6.50;99.90;;;;;;6270462;22;20065;-69
2023/11/21 09:56:02;;;;;;;6.90;3.70;;;6.50;99.90;;;;;;6269669;22;20012;-67
2023/11/21 09:58:51;;;;;;;7.00;3.80;;;6.60;99.90;;;;;;6269158;22;20312;-69
2023/11/21 10:01:40;;;;;;;6.25;3.88;;;6.60;99.90;;;;;;6269258;22;20043;-68
2023/11/21 10:04:28;;;;;;;4.25;2.70;;;6.60;99.90;;;;;;6249079;22;20020;-70
2023/11/21 10:07:17;;;;;;;4.85;2.80;;;6.50;99.90;;;;;;6249103;22;20083;-71
2023/11/21 10:10:05;;;;;;;5.43;3.28;;;6.60;99.90;;;;;;6269813;22;20141;-71
2023/11/21 10:12:55;;;;;;;4.85;3.58;;;6.60;99.90;;;;;;6269627;22;20008;-69
2023/11/21 10:15:44;;;;;;;4.25;2.33;;;6.60;99.90;;;;;;6269473;22;20456;-71
2023/11/21 10:18:30;;;;;;;3.88;2.35;;;6.60;99.90;;;;;;6248545;22;20093;-68
2023/11/21 10:21:16;;;;;;;4.07;2.58;;;6.50;99.90;;;;;;6270529;22;20030;-65
2023/11/21 10:24:03;;;;;;;5.57;2.55;;;6.40;99.90;;;;;;6269112;22;20496;-68
2023/11/21 10:26:50;;;;;;;5.68;3.45;;;6.40;99.90;;;;;;6246072;22;20007;-69
2023/11/21 10:29:36;;;;;;;4.32;2.55;;;6.40;99.90;;;;;;6270011;22;20062;-69
2023/11/21 10:32:28;;;;;;;4.55;2.78;;;6.40;99.90;;;;;;6270100;22;20016;-69
2023/11/21 10:35:14;;;;;;;5.07;3.40;;;6.40;99.90;;;;;;6246994;22;20007;-69
2023/11/21 10:38:00;;;;;;;8.18;3.30;;;6.40;99.90;;;;;;6268284;22;20012;-69
2023/11/21 10:40:47;;;;;;;4.45;3.05;;;6.40;99.90;;;;;;6268542;22;20042;-69
2023/11/21 10:43:33;;;;;;;5.18;3.33;;;6.40;99.90;;;;;;6269145;22;20043;-69
2023/11/21 10:46:20;;;;;;;6.22;3.38;;;6.30;99.90;;;;;;6268973;22;20008;-69
2023/11/21 10:49:06;;;;;;;3.80;2.45;;;6.30;99.90;;;;;;6246462;22;20054;-69
2023/11/21 10:51:53;;;;;;;4.15;2.80;;;6.20;99.90;;;;;;6268561;22;20011;-69
2023/11/21 10:54:39;;;;;;;6.10;3.00;;;6.20;99.90;;;;;;6268906;22;20019;-69
2023/11/21 10:57:26;;;;;;;4.55;3.03;;;6.20;99.90;;;;;;6269656;22;20101;-69
2023/11/21 11:00:13;;;;;;;3.42;2.50;;;6.10;99.90;;;;;;6271584;22;20011;-70
2023/11/21 11:03:00;;;;;;;4.13;2.60;;;6.10;99.90;;;;;;6271322;22;20016;-69
2023/11/21 11:05:51;;;;;;;4.60;2.95;;;6.10;99.90;;;;;;6270228;22;20051;-69
2023/11/21 11:08:37;;;;;;;5.22;3.10;;;6.00;99.90;;;;;;6269301;22;20476;-64
2023/11/21 11:11:25;;;;;;;5.07;3.30;;;6.00;99.90;;;;;;6271656;22;20016;-64
2023/11/21 11:14:12;;;;;;;6.78;4.25;;;6.00;99.90;;;;;;6271324;22;20057;-64
2023/11/21 11:17:00;;;;;;;6.90;3.47;;;6.00;99.90;;;;;;6268951;22;20090;-66
2023/11/21 11:19:49;;;;;;;5.20;3.30;;;6.00;99.90;;;;;;6269602;22;20014;-64
2023/11/21 11:22:46;;;;;;;6.05;4.28;;;6.10;99.90;;;;;;6271938;22;20070;-64
2023/11/21 11:25:32;;;;;;;5.90;4.10;;;6.20;99.90;;;;;;6248045;22;20011;-65
2023/11/21 11:28:21;;;;;;;7.28;4.38;;;6.30;99.90;;;;;;6269652;22;20008;-64
2023/11/21 11:31:18;;;;;;;6.10;4.18;;;6.20;99.90;;;;;;6272040;22;20027;-64
2023/11/21 11:34:32;;;;;;;5.32;3.70;;;6.20;99.90;;;;;;6270689;22;20441;-65
2023/11/21 11:37:19;;;;;;;6.57;3.97;;;6.20;99.90;;;;;;6270953;22;20503;-64
2023/11/21 11:40:11;;;;;;;4.85;3.28;;;6.20;99.90;;;;;;6270850;22;20091;-65
2023/11/21 11:43:02;;;;;;;6.80;4.30;;;6.10;99.90;;;;;;6270186;22;20057;-65
2023/11/21 11:45:51;;;;;;;6.00;4.07;;;6.10;99.90;;;;;;6270173;22;20484;-64
2023/11/21 11:48:40;;;;;;;8.10;3.38;;;6.10;99.90;;;;;;6270404;22;20039;-65
2023/11/21 11:51:26;;;;;;;5.63;3.35;;;6.20;99.90;;;;;;6271400;22;20342;-65
2023/11/21 11:54:13;;;;;;;4.85;3.53;;;6.20;99.90;;;;;;6271088;22;20350;-65
2023/11/21 11:56:59;;;;;;;6.07;3.13;;;6.20;99.90;;;;;;6272558;22;20083;-65
2023/11/21 12:00:12;;;;;;;5.88;3.55;;;6.20;99.90;;;;;;6270362;22;20657;-65
2023/11/21 12:03:03;;;;;;;6.15;3.80;;;6.10;99.90;;;;;;6270616;22;20023;-65
2023/11/21 12:05:52;;;;;;;6.32;4.10;;;6.10;99.90;;;;;;6272047;22;20011;-65
2023/11/21 12:08:38;;;;;;;4.68;3.47;;;6.00;99.90;;;;;;6269387;22;20008;-65
2023/11/21 12:11:31;;;;;;;9.85;4.85;;;6.10;99.90;;;;;;6270787;22;20066;-54
2023/11/21 12:14:17;;;;;;;5.45;3.50;;;6.00;99.90;;;;;;6271517;22;20336;-63
2023/11/21 12:17:04;;;;;;;5.38;3.88;;;6.10;99.90;;;;;;6269515;22;20031;-66
2023/11/21 12:19:52;;;;;;;5.20;3.50;;;6.00;99.90;;;;;;6271235;22;20057;-64
2023/11/21 12:22:38;;;;;;;4.65;3.38;;;6.00;99.90;;;;;;6270036;22;20032;-65
2023/11/21 12:25:32;;;;;;;9.48;3.95;;;6.00;99.90;;;;;;6270570;22;20016;-62
2023/11/21 12:28:18;;;;;;;15.65;3.47;;;6.00;99.90;;;;;;6271850;22;20016;-63
2023/11/21 12:31:06;;;;;;;5.07;3.05;;;6.00;99.90;;;;;;6271309;22;20008;-62
2023/11/21 12:33:52;;;;;;;4.22;3.20;;;6.00;99.90;;;;;;6271958;22;20042;-63
2023/11/21 12:36:39;;;;;;;4.35;2.78;;;5.90;99.90;;;;;;6273055;22;20035;-63
2023/11/21 12:39:24;;;;;;;5.13;2.63;;;5.90;99.90;;;;;;6271123;22;20043;-63
2023/11/21 12:42:10;;;;;;;5.18;3.53;;;5.90;99.90;;;;;;6271161;22;20012;-64
2023/11/21 12:45:17;;;;;;;4.18;2.97;;;5.80;99.90;;;;;;6270917;22;20018;-62
2023/11/21 12:48:07;;;;;;;;;;;5.90;99.90;;;;;;6271349;22;20023;-61
2023/11/21 12:50:55;;;;;;;3.45;2.47;;;5.90;99.90;;;;;;6270453;22;19911;-61
2023/11/21 12:53:42;;;;;;;5.30;3.47;;;5.90;99.90;;;;;;6246616;22;20043;-61
2023/11/21 12:56:29;;;;;;;5.13;3.42;;;5.80;99.90;;;;;;6269058;22;20089;-61
2023/11/21 12:59:16;;;;;;;4.25;3.03;;;5.80;99.90;;;;;;6269491;22;20000;-61
2023/11/21 13:02:04;;;;;;;3.83;2.65;;;5.80;99.90;;;;;;6267262;22;20007;-61
2023/11/21 13:04:54;;;;;;;4.60;3.33;;;5.70;99.90;;;;;;6265846;22;20114;-60
2023/11/21 13:07:46;;;;;;;5.28;3.60;;;5.70;99.90;;;;;;6270121;22;20430;-61
2023/11/21 13:10:36;;;;;;;7.03;3.92;;;5.70;99.90;;;;;;6269089;22;20349;-61
2023/11/21 13:13:24;;;;;;;5.70;3.60;;;5.70;99.90;;;;;;6270183;22;20014;-61
2023/11/21 13:16:10;;;;;;;4.07;2.80;;;5.70;99.90;;;;;;6269443;22;20346;-60
2023/11/21 13:18:56;;;;;;;4.80;3.05;;;5.70;99.90;;;;;;6268864;22;20442;-61
2023/11/21 13:21:42;;;;;;;4.25;3.00;;;5.70;99.90;;;;;;6270459;22;20011;-60
2023/11/21 13:24:28;;;;;;;4.40;2.85;;;5.70;99.90;;;;;;6271404;22;20453;-61
2023/11/21 13:27:15;;;;;;;5.47;3.15;;;5.80;99.90;;;;;;6269842;22;20090;-61
2023/11/21 13:30:01;;;;;;;5.57;3.20;;;5.70;99.90;;;;;;6270236;22;20099;-60
2023/11/21 13:32:47;;;;;;;5.72;4.03;;;5.70;99.90;;;;;;6270816;22;20016;-60
2023/11/21 13:35:37;;;;;;;5.25;3.30;;;5.80;99.90;;;;;;6270401;22;20020;-60
2023/11/21 13:38:23;;;;;;;5.25;3.20;;;5.70;99.90;;;;;;6272175;22;20018;-60
2023/11/21 13:41:09;;;;;;;5.45;3.33;;;5.70;99.90;;;;;;6271062;22;20073;-60
2023/11/21 13:44:12;;;;;;;7.97;4.90;;;5.80;99.90;;;;;;6269615;22;20170;-60
2023/11/21 13:46:58;;;;;;;7.32;4.63;;;5.70;99.90;;;;;;6271749;22;20035;-60
2023/11/21 13:49:44;;;;;;;8.88;4.65;;;5.60;99.90;;;;;;6268999;22;20074;-61
2023/11/21 13:52:33;;;;;;;7.65;5.03;;;5.50;99.90;;;;;;6270440;22;20098;-60
2023/11/21 13:55:19;;;;;;;7.72;5.28;;;5.50;99.90;;;;;;6271052;22;20380;-60
2023/11/21 13:58:09;;;;;;;6.80;4.22;;;5.40;99.90;;;;;;6269504;22;20050;-62
2023/11/21 14:00:56;;;;;;;7.50;4.30;;;5.40;99.90;;;;;;6248464;22;20014;-60
2023/11/21 14:03:51;;;;;;;7.28;4.88;;;5.40;99.90;;;;;;6269302;22;20020;-60
2023/11/21 14:06:47;;;;;;;6.95;4.13;;;5.30;99.90;;;;;;6269691;22;20372;-60
2023/11/21 14:09:35;;;;;;;8.48;5.68;;;5.30;99.90;;;;;;6268199;22;20012;-61
2023/11/21 14:12:21;;;;;;;10.07;5.53;;;5.30;99.90;;;;;;6269065;22;20027;-61
2023/11/21 14:15:09;;;;;;;8.10;5.80;;;5.20;99.90;;;;;;6270034;22;20015;-61
2023/11/21 14:17:55;;;;;;;9.20;6.38;;;5.10;99.90;;;;;;6268757;22;20045;-61
2023/11/21 14:20:41;;;;;;;10.25;6.65;;;5.10;99.90;;;;;;6269893;22;20094;-62
2023/11/21 14:23:29;;;;;;;9.98;6.70;;;5.00;99.90;;;;;;6269471;22;20027;-61
2023/11/21 14:26:16;;;;;;;12.52;8.85;;;5.00;99.90;;;;;;6270995;22;20011;-61
2023/11/21 14:29:02;;;;;;;12.77;9.00;;;5.00;99.90;;;;;;6268488;22;20015;-61
2023/11/21 14:31:56;;;;;;;13.23;8.55;;;4.90;99.90;;;;;;6268661;22;20070;-61
2023/11/21 14:34:45;;;;;;;12.55;8.25;;;4.90;99.90;;;;;;6271162;22;20012;-61